SWA5022 PHTO-PHOG
Flight info
| Callsign | SWA5022 |
|---|---|
| Flight time | 0h 29m |
| Altitude | 16000 |
| Route | ITO OGG |
| Aircraft | B38M/M-SADE2E3GHIJ4J7P2RWZ/LB1D1 |
Departure
| Time | 2026-04-21 05:43 |
|---|---|
| Airport | Hilo International Airport (PHTO) |
Arrival
| Time | 2026-04-21 06:12 |
|---|---|
| Airport | Kahului International Airport (PHOG) |
| Time | Latitude | Longitude | Altitude | Speed | Heading |
|---|---|---|---|---|---|
| 2026-04-21 05:16 | 19.71558 | -155.04039 | 45 ft | 0 kts | 180° |
| 2026-04-21 05:33 | 19.71575 | -155.04043 | 49 ft | 3 kts | 151° |
| 2026-04-21 05:33 | 19.71581 | -155.04047 | 50 ft | 3 kts | 155° |
| 2026-04-21 05:34 | 19.71599 | -155.04051 | 48 ft | 3 kts | 185° |
| 2026-04-21 05:34 | 19.71616 | -155.04046 | 53 ft | 1 kts | 210° |
| 2026-04-21 05:34 | 19.71617 | -155.04045 | 53 ft | 0 kts | 210° |
| 2026-04-21 05:38 | 19.71615 | -155.04049 | 54 ft | 1 kts | 234° |
| 2026-04-21 05:39 | 19.71614 | -155.04050 | 54 ft | 2 kts | 235° |
| 2026-04-21 05:39 | 19.71623 | -155.04064 | 49 ft | 4 kts | 349° |
| 2026-04-21 05:39 | 19.71679 | -155.04057 | 53 ft | 12 kts | 7° |
| 2026-04-21 05:39 | 19.71782 | -155.04056 | 51 ft | 16 kts | 0° |
| 2026-04-21 05:40 | 19.71896 | -155.04057 | 52 ft | 15 kts | 358° |
| 2026-04-21 05:40 | 19.71997 | -155.04045 | 53 ft | 14 kts | 35° |
| 2026-04-21 05:40 | 19.72018 | -155.03948 | 55 ft | 15 kts | 90° |
| 2026-04-21 05:40 | 19.72019 | -155.03821 | 55 ft | 19 kts | 91° |
| 2026-04-21 05:41 | 19.72017 | -155.03660 | 55 ft | 24 kts | 90° |
| 2026-04-21 05:41 | 19.72019 | -155.03465 | 55 ft | 28 kts | 89° |
| 2026-04-21 05:41 | 19.72017 | -155.03254 | 54 ft | 29 kts | 90° |
| 2026-04-21 05:41 | 19.72018 | -155.03069 | 54 ft | 19 kts | 90° |
| 2026-04-21 05:42 | 19.72053 | -155.02956 | 53 ft | 18 kts | 25° |
| 2026-04-21 05:42 | 19.72101 | -155.02950 | 50 ft | 18 kts | 352° |
| 2026-04-21 05:42 | 19.72142 | -155.03020 | 54 ft | 15 kts | 270° |
| 2026-04-21 05:42 | 19.72142 | -155.03172 | 54 ft | 41 kts | 269° |
| 2026-04-21 05:43 | 19.72141 | -155.03738 | 56 ft | 110 kts | 270° |
| 2026-04-21 05:43 | 19.72141 | -155.04756 | 110 ft | 157 kts | 270° |
| 2026-04-21 05:43 | 19.72162 | -155.05966 | 637 ft | 171 kts | 272° |
| 2026-04-21 05:43 | 19.72399 | -155.07223 | 1315 ft | 178 kts | 291° |
| 2026-04-21 05:44 | 19.73238 | -155.08241 | 1783 ft | 196 kts | 335° |
| 2026-04-21 05:44 | 19.74627 | -155.08361 | 2233 ft | 216 kts | 20° |
| 2026-04-21 05:44 | 19.75790 | -155.07422 | 2919 ft | 214 kts | 58° |
| 2026-04-21 05:44 | 19.76453 | -155.05993 | 3789 ft | 217 kts | 66° |
| 2026-04-21 05:45 | 19.77220 | -155.04520 | 4090 ft | 248 kts | 54° |
| 2026-04-21 05:45 | 19.78304 | -155.03037 | 4763 ft | 257 kts | 52° |
| 2026-04-21 05:45 | 19.79408 | -155.01485 | 5435 ft | 270 kts | 53° |
| 2026-04-21 05:45 | 19.80582 | -154.99901 | 6195 ft | 275 kts | 44° |
| 2026-04-21 05:46 | 19.82205 | -154.98827 | 6818 ft | 284 kts | 13° |
| 2026-04-21 05:46 | 19.84124 | -154.98688 | 7826 ft | 275 kts | 360° |
| 2026-04-21 05:46 | 19.86080 | -154.98604 | 8433 ft | 285 kts | 2° |
| 2026-04-21 05:46 | 19.88526 | -154.98436 | 9449 ft | 289 kts | 2° |
| 2026-04-21 05:47 | 19.90551 | -154.98286 | 10182 ft | 294 kts | 3° |
| 2026-04-21 05:47 | 19.92653 | -154.98123 | 10596 ft | 312 kts | 3° |
| 2026-04-21 05:47 | 19.94889 | -154.97945 | 10898 ft | 332 kts | 3° |
| 2026-04-21 05:47 | 19.97259 | -154.97755 | 11201 ft | 350 kts | 3° |
| 2026-04-21 05:48 | 19.99736 | -154.97554 | 11647 ft | 362 kts | 3° |
| 2026-04-21 05:48 | 20.02224 | -154.97352 | 12363 ft | 364 kts | 3° |
| 2026-04-21 05:48 | 20.04767 | -154.97145 | 13055 ft | 369 kts | 3° |
| 2026-04-21 05:48 | 20.07339 | -154.96939 | 13763 ft | 373 kts | 1° |
| 2026-04-21 05:49 | 20.09912 | -154.97205 | 14406 ft | 373 kts | 342° |
| 2026-04-21 05:49 | 20.12242 | -154.98386 | 15080 ft | 372 kts | 322° |
| 2026-04-21 05:49 | 20.14073 | -155.00325 | 15681 ft | 375 kts | 304° |
| 2026-04-21 05:49 | 20.15281 | -155.02759 | 15875 ft | 372 kts | 288° |
| 2026-04-21 05:50 | 20.15684 | -155.04541 | 15945 ft | 379 kts | 278° |
| 2026-04-21 05:50 | 20.15958 | -155.07395 | 15949 ft | 396 kts | 275° |
| 2026-04-21 05:50 | 20.16178 | -155.10359 | 15947 ft | 405 kts | 274° |
| 2026-04-21 05:50 | 20.16372 | -155.13378 | 15955 ft | 411 kts | 274° |
| 2026-04-21 05:51 | 20.16552 | -155.16418 | 15978 ft | 412 kts | 273° |
| 2026-04-21 05:51 | 20.16718 | -155.19466 | 15990 ft | 412 kts | 273° |
| 2026-04-21 05:51 | 20.16932 | -155.22506 | 15992 ft | 412 kts | 277° |
| 2026-04-21 05:51 | 20.17443 | -155.25472 | 15993 ft | 404 kts | 283° |
| 2026-04-21 05:52 | 20.18301 | -155.28294 | 15986 ft | 400 kts | 294° |
| 2026-04-21 05:52 | 20.19823 | -155.30761 | 15994 ft | 401 kts | 310° |
| 2026-04-21 05:52 | 20.21833 | -155.32767 | 15997 ft | 402 kts | 319° |
| 2026-04-21 05:52 | 20.23990 | -155.34669 | 15991 ft | 402 kts | 319° |
| 2026-04-21 05:53 | 20.26124 | -155.36558 | 15986 ft | 397 kts | 319° |
| 2026-04-21 05:53 | 20.28243 | -155.38437 | 15986 ft | 396 kts | 319° |
| 2026-04-21 05:53 | 20.30360 | -155.40317 | 15983 ft | 395 kts | 319° |
| 2026-04-21 05:53 | 20.32438 | -155.42159 | 15985 ft | 380 kts | 319° |
| 2026-04-21 05:54 | 20.34435 | -155.43925 | 15828 ft | 369 kts | 319° |
| 2026-04-21 05:54 | 20.36384 | -155.45653 | 15622 ft | 360 kts | 319° |
| 2026-04-21 05:54 | 20.38291 | -155.47345 | 15353 ft | 353 kts | 319° |
| 2026-04-21 05:54 | 20.40163 | -155.49008 | 15077 ft | 347 kts | 318° |
| 2026-04-21 05:55 | 20.42010 | -155.50651 | 14757 ft | 344 kts | 318° |
| 2026-04-21 05:55 | 20.43840 | -155.52281 | 14396 ft | 342 kts | 318° |
| 2026-04-21 05:55 | 20.45658 | -155.53901 | 14048 ft | 340 kts | 318° |
| 2026-04-21 05:55 | 20.47442 | -155.55492 | 13653 ft | 338 kts | 318° |
| 2026-04-21 05:56 | 20.49243 | -155.57098 | 13211 ft | 337 kts | 318° |
| 2026-04-21 05:56 | 20.51040 | -155.58703 | 12769 ft | 337 kts | 318° |
| 2026-04-21 05:56 | 20.52839 | -155.60309 | 12324 ft | 336 kts | 318° |
| 2026-04-21 05:56 | 20.54631 | -155.61910 | 11903 ft | 335 kts | 318° |
| 2026-04-21 05:57 | 20.56419 | -155.63508 | 11482 ft | 335 kts | 318° |
| 2026-04-21 05:57 | 20.58202 | -155.65101 | 11052 ft | 334 kts | 318° |
| 2026-04-21 05:57 | 20.59955 | -155.66669 | 10648 ft | 333 kts | 318° |
| 2026-04-21 05:57 | 20.61738 | -155.68263 | 10243 ft | 332 kts | 318° |
| 2026-04-21 05:58 | 20.63511 | -155.69849 | 9878 ft | 330 kts | 318° |
| 2026-04-21 05:58 | 20.65213 | -155.71369 | 9907 ft | 314 kts | 319° |
| 2026-04-21 05:58 | 20.66846 | -155.72826 | 9926 ft | 299 kts | 318° |
| 2026-04-21 05:58 | 20.68415 | -155.74227 | 9799 ft | 290 kts | 319° |
| 2026-04-21 05:59 | 20.69954 | -155.75605 | 9549 ft | 286 kts | 319° |
| 2026-04-21 05:59 | 20.71468 | -155.76960 | 9299 ft | 282 kts | 319° |
| 2026-04-21 05:59 | 20.72957 | -155.78295 | 9056 ft | 278 kts | 318° |
| 2026-04-21 06:00 | 20.75873 | -155.80908 | 8594 ft | 269 kts | 318° |
| 2026-04-21 06:00 | 20.77298 | -155.82187 | 8341 ft | 266 kts | 318° |
| 2026-04-21 06:00 | 20.78709 | -155.83452 | 8074 ft | 263 kts | 319° |
| 2026-04-21 06:00 | 20.80106 | -155.84706 | 7819 ft | 261 kts | 319° |
| 2026-04-21 06:01 | 20.81489 | -155.85948 | 7560 ft | 258 kts | 319° |
| 2026-04-21 06:01 | 20.82857 | -155.87177 | 7305 ft | 256 kts | 319° |
| 2026-04-21 06:01 | 20.84218 | -155.88399 | 7053 ft | 254 kts | 319° |
| 2026-04-21 06:01 | 20.85549 | -155.89595 | 6805 ft | 252 kts | 319° |
| 2026-04-21 06:02 | 20.86885 | -155.90796 | 6539 ft | 250 kts | 320° |
| 2026-04-21 06:02 | 20.88214 | -155.91991 | 6277 ft | 248 kts | 319° |
| 2026-04-21 06:02 | 20.89536 | -155.93180 | 6012 ft | 248 kts | 320° |
| 2026-04-21 06:02 | 20.90859 | -155.94371 | 5753 ft | 249 kts | 320° |
| 2026-04-21 06:03 | 20.92184 | -155.95563 | 5520 ft | 249 kts | 319° |
| 2026-04-21 06:03 | 20.93510 | -155.96757 | 5273 ft | 249 kts | 319° |
| 2026-04-21 06:03 | 20.94833 | -155.97947 | 5040 ft | 248 kts | 319° |
| 2026-04-21 06:03 | 20.96152 | -155.99135 | 4796 ft | 246 kts | 319° |
| 2026-04-21 06:04 | 20.97233 | -156.00520 | 4525 ft | 242 kts | 294° |
| 2026-04-21 06:04 | 20.97646 | -156.02239 | 4312 ft | 237 kts | 279° |
| 2026-04-21 06:04 | 20.97914 | -156.03965 | 4103 ft | 233 kts | 279° |
| 2026-04-21 06:04 | 20.98161 | -156.05644 | 3896 ft | 229 kts | 278° |
| 2026-04-21 06:05 | 20.98399 | -156.07317 | 3685 ft | 227 kts | 278° |
| 2026-04-21 06:05 | 20.98626 | -156.08968 | 3487 ft | 228 kts | 278° |
| 2026-04-21 06:05 | 20.98855 | -156.10656 | 3285 ft | 229 kts | 278° |
| 2026-04-21 06:05 | 20.99080 | -156.12341 | 3074 ft | 229 kts | 278° |
| 2026-04-21 06:06 | 20.99303 | -156.14032 | 2862 ft | 229 kts | 277° |
| 2026-04-21 06:06 | 20.99526 | -156.15721 | 2684 ft | 229 kts | 277° |
| 2026-04-21 06:06 | 20.99747 | -156.17409 | 2550 ft | 229 kts | 277° |
| 2026-04-21 06:06 | 20.99968 | -156.19094 | 2441 ft | 227 kts | 277° |
| 2026-04-21 06:07 | 21.00188 | -156.20769 | 2417 ft | 227 kts | 277° |
| 2026-04-21 06:07 | 21.00406 | -156.22445 | 2381 ft | 227 kts | 277° |
| 2026-04-21 06:07 | 21.00625 | -156.24117 | 2318 ft | 226 kts | 277° |
| 2026-04-21 06:07 | 21.00843 | -156.25782 | 2266 ft | 225 kts | 277° |
| 2026-04-21 06:08 | 21.01056 | -156.27422 | 2207 ft | 225 kts | 277° |
| 2026-04-21 06:08 | 21.01272 | -156.29083 | 2140 ft | 225 kts | 277° |
| 2026-04-21 06:08 | 21.01487 | -156.30737 | 2039 ft | 225 kts | 277° |
| 2026-04-21 06:08 | 21.01695 | -156.32370 | 1933 ft | 215 kts | 275° |
| 2026-04-21 06:09 | 21.01424 | -156.33863 | 1762 ft | 202 kts | 237° |
| 2026-04-21 06:09 | 21.00481 | -156.34899 | 1728 ft | 191 kts | 215° |
| 2026-04-21 06:09 | 20.99428 | -156.35727 | 1704 ft | 183 kts | 213° |
| 2026-04-21 06:09 | 20.98437 | -156.36495 | 1700 ft | 165 kts | 216° |
| 2026-04-21 06:10 | 20.97538 | -156.37222 | 1680 ft | 160 kts | 216° |
| 2026-04-21 06:10 | 20.96646 | -156.37914 | 1501 ft | 157 kts | 212° |
| 2026-04-21 06:10 | 20.95736 | -156.38554 | 1295 ft | 156 kts | 212° |
| 2026-04-21 06:10 | 20.94841 | -156.39212 | 1128 ft | 157 kts | 214° |
| 2026-04-21 06:11 | 20.93951 | -156.39884 | 943 ft | 155 kts | 215° |
| 2026-04-21 06:11 | 20.93072 | -156.40529 | 680 ft | 152 kts | 214° |
| 2026-04-21 06:11 | 20.92190 | -156.41175 | 458 ft | 154 kts | 217° |
| 2026-04-21 06:11 | 20.91311 | -156.41832 | 311 ft | 154 kts | 217° |
| 2026-04-21 06:12 | 20.90438 | -156.42492 | 93 ft | 152 kts | 215° |
| 2026-04-21 06:12 | 20.89697 | -156.43047 | 48 ft | 127 kts | 215° |
| 2026-04-21 06:12 | 20.89175 | -156.43439 | 48 ft | 59 kts | 214° |
| 2026-04-21 06:12 | 20.88990 | -156.43579 | 47 ft | 21 kts | 215° |
| 2026-04-21 06:13 | 20.88955 | -156.43655 | 44 ft | 11 kts | 300° |
| 2026-04-21 06:13 | 20.89014 | -156.43708 | 47 ft | 12 kts | 2° |
| 2026-04-21 06:13 | 20.89090 | -156.43662 | 46 ft | 14 kts | 34° |
| 2026-04-21 06:13 | 20.89165 | -156.43632 | 47 ft | 7 kts | 348° |
| 2026-04-21 06:14 | 20.89194 | -156.43663 | 47 ft | 5 kts | 279° |
| 2026-04-21 06:14 | 20.89180 | -156.43697 | 45 ft | 5 kts | 218° |
| 2026-04-21 06:14 | 20.89142 | -156.43722 | 47 ft | 8 kts | 217° |
| 2026-04-21 06:14 | 20.89139 | -156.43757 | 47 ft | 5 kts | 291° |
| 2026-04-21 06:15 | 20.89152 | -156.43779 | 47 ft | 0 kts | 304° |